createdAt,value
2022-09-23T00:00:27.297Z,12.70
2022-09-23T00:02:54.513Z,12.48
2022-09-23T00:05:21.691Z,12.40
2022-09-23T00:07:49.215Z,13.18
2022-09-23T00:10:16.425Z,12.32
2022-09-23T00:12:43.649Z,13.23
2022-09-23T00:15:11.372Z,13.18
2022-09-23T00:17:38.611Z,12.77
2022-09-23T00:20:06.012Z,13.25
2022-09-23T00:22:33.898Z,13.45
2022-09-23T00:25:01.070Z,12.45
2022-09-23T00:27:29.563Z,12.95
2022-09-23T00:29:56.722Z,12.20
2022-09-23T00:32:23.902Z,12.63
2022-09-23T00:34:51.981Z,11.80
2022-09-23T00:37:19.677Z,12.60
2022-09-23T00:39:47.282Z,11.38
2022-09-23T00:42:16.292Z,12.18
2022-09-23T00:44:45.973Z,12.95
2022-09-23T00:47:24.509Z,11.75
2022-09-23T00:49:54.958Z,12.30
2022-09-23T00:52:23.928Z,12.65
2022-09-23T00:54:53.393Z,12.25
2022-09-23T00:57:20.574Z,12.98
2022-09-23T00:59:48.698Z,12.63
2022-09-23T01:02:16.214Z,12.88
2022-09-23T01:04:43.463Z,13.65
2022-09-23T01:07:10.656Z,13.23
2022-09-23T01:09:37.899Z,13.23
2022-09-23T01:12:05.223Z,13.32
2022-09-23T01:15:08.094Z,13.32
2022-09-23T01:20:11.644Z,12.38
2022-09-23T01:22:41.819Z,14.50
2022-09-23T01:25:08.974Z,13.98
2022-09-23T01:27:58.420Z,14.23
2022-09-23T01:30:44.498Z,14.70
2022-09-23T01:33:16.665Z,13.77
2022-09-23T01:35:53.061Z,13.85
2022-09-23T01:38:39.199Z,14.95
2022-09-23T01:41:22.603Z,14.27
2022-09-23T01:43:58.951Z,13.80
2022-09-23T01:46:49.293Z,14.35
2022-09-23T01:49:20.184Z,14.38
2022-09-23T01:51:53.068Z,14.05
2022-09-23T01:54:26.486Z,15.77
2022-09-23T01:57:01.639Z,12.63
2022-09-23T01:59:44.024Z,14.27
2022-09-23T02:02:16.683Z,13.93
2022-09-23T02:04:47.168Z,14.43
2022-09-23T02:07:32.766Z,14.85
2022-09-23T02:10:14.207Z,13.85
2022-09-23T02:12:45.546Z,15.00
2022-09-23T02:15:15.348Z,14.77
2022-09-23T02:17:52.202Z,14.52
2022-09-23T02:20:34.438Z,14.30
2022-09-23T02:23:16.443Z,14.90
2022-09-23T02:25:46.693Z,15.10
2022-09-23T02:28:16.996Z,14.90
2022-09-23T02:30:50.304Z,14.43
2022-09-23T02:33:40.840Z,14.25
2022-09-23T02:36:12.070Z,14.63
2022-09-23T02:38:58.623Z,15.05
2022-09-23T02:41:29.298Z,15.27
2022-09-23T02:43:57.739Z,14.85
2022-09-23T02:46:25.029Z,13.82
2022-09-23T02:49:04.155Z,14.05
2022-09-23T02:51:37.809Z,13.60
2022-09-23T02:54:07.260Z,14.00
2022-09-23T02:56:34.927Z,14.15
2022-09-23T02:59:02.755Z,14.00
2022-09-23T03:01:33.124Z,13.35
2022-09-23T03:04:16.529Z,14.30
2022-09-23T03:06:43.759Z,15.27
2022-09-23T03:09:19.555Z,14.15
2022-09-23T03:11:53.814Z,14.52
2022-09-23T03:14:22.199Z,14.07
2022-09-23T03:16:59.136Z,14.57
2022-09-23T03:19:35.373Z,14.02
2022-09-23T03:22:11.468Z,14.23
2022-09-23T03:24:40.040Z,15.00
2022-09-23T03:27:13.716Z,15.13
2022-09-23T03:29:47.132Z,13.82
2022-09-23T03:32:17.003Z,15.73
2022-09-23T03:34:45.023Z,15.50
2022-09-23T03:37:18.879Z,13.90
2022-09-23T03:39:52.655Z,14.85
2022-09-23T03:42:21.715Z,14.00
2022-09-23T03:44:50.406Z,14.73
2022-09-23T03:47:18.552Z,15.55
2022-09-23T03:49:50.816Z,14.38
2022-09-23T03:52:19.107Z,14.90
2022-09-23T03:54:46.606Z,14.43
2022-09-23T03:57:13.860Z,14.35
2022-09-23T03:59:41.331Z,16.30
2022-09-23T04:02:09.123Z,14.88
2022-09-23T04:04:37.403Z,14.35
2022-09-23T04:07:04.602Z,15.80
2022-09-23T04:09:31.861Z,13.77
2022-09-23T04:11:59.083Z,14.50
2022-09-23T04:14:26.286Z,14.98
2022-09-23T04:16:53.495Z,14.55
2022-09-23T04:19:20.708Z,15.07
2022-09-23T04:21:48.074Z,14.27
2022-09-23T04:24:16.240Z,14.40
2022-09-23T04:26:44.144Z,13.80
2022-09-23T04:29:11.954Z,14.93
2022-09-23T04:31:39.449Z,15.30
2022-09-23T04:34:06.952Z,13.35
2022-09-23T04:36:34.311Z,14.45
2022-09-23T04:39:01.581Z,13.77
2022-09-23T04:41:29.592Z,15.45
2022-09-23T04:43:57.588Z,14.60
2022-09-23T04:46:25.158Z,15.73
2022-09-23T04:48:52.385Z,14.32
2022-09-23T04:51:20.780Z,15.60
2022-09-23T04:53:48.552Z,15.15
2022-09-23T04:56:17.045Z,15.38
2022-09-23T04:58:45.623Z,15.48
2022-09-23T05:01:17.269Z,15.20
2022-09-23T05:03:45.120Z,15.43
2022-09-23T05:06:13.893Z,16.42
2022-09-23T05:08:48.580Z,15.32
2022-09-23T05:11:15.873Z,15.13
2022-09-23T05:13:43.153Z,15.65
2022-09-23T05:16:12.542Z,15.40
2022-09-23T05:18:42.671Z,16.58
2022-09-23T05:21:17.647Z,16.00
2022-09-23T05:23:48.488Z,15.10
2022-09-23T05:26:15.756Z,15.60
2022-09-23T05:28:42.968Z,14.82
2022-09-23T05:31:20.281Z,16.35
2022-09-23T05:33:52.088Z,16.50
2022-09-23T05:36:20.677Z,16.15
2022-09-23T05:38:49.266Z,16.23
2022-09-23T05:41:16.923Z,15.73
2022-09-23T05:43:44.144Z,15.32
2022-09-23T05:46:12.883Z,15.18
2022-09-23T05:48:40.736Z,15.48
2022-09-23T05:51:12.939Z,16.27
2022-09-23T05:53:41.668Z,16.63
2022-09-23T05:56:08.820Z,16.70
2022-09-23T05:58:35.988Z,16.38
2022-09-23T06:01:09.288Z,17.17
2022-09-23T06:03:36.599Z,16.63
2022-09-23T06:06:03.775Z,17.05
2022-09-23T06:08:31.932Z,16.08
2022-09-23T06:10:59.374Z,16.98
2022-09-23T06:13:27.111Z,16.48
2022-09-23T06:15:58.371Z,15.77
2022-09-23T06:18:25.659Z,16.52
2022-09-23T06:20:52.978Z,16.98
2022-09-23T06:23:23.583Z,16.08
2022-09-23T06:28:19.993Z,16.40
2022-09-23T06:30:49.428Z,16.80
2022-09-23T06:33:20.232Z,16.42
2022-09-23T06:35:59.894Z,16.27
2022-09-23T06:38:28.092Z,16.75
2022-09-23T06:40:56.142Z,15.13
2022-09-23T06:43:23.766Z,16.05
2022-09-23T06:45:54.543Z,15.20
2022-09-23T06:48:21.959Z,15.32
2022-09-23T06:50:49.411Z,15.32
2022-09-23T06:53:16.912Z,14.88
2022-09-23T06:55:44.643Z,14.20
2022-09-23T06:58:11.925Z,14.30
2022-09-23T07:00:39.248Z,14.70
2022-09-23T07:03:10.102Z,13.55
2022-09-23T07:05:38.587Z,14.38
2022-09-23T07:08:09.683Z,14.40
2022-09-23T07:10:37.163Z,15.40
2022-09-23T07:13:05.104Z,13.32
2022-09-23T07:15:33.851Z,13.68
2022-09-23T07:18:01.082Z,13.27
2022-09-23T07:20:28.249Z,13.07
2022-09-23T07:22:55.699Z,13.45
2022-09-23T07:25:23.187Z,13.35
2022-09-23T07:27:50.352Z,13.82
2022-09-23T07:30:24.620Z,13.27
2022-09-23T07:32:53.169Z,13.30
2022-09-23T07:35:20.456Z,13.45
2022-09-23T07:37:47.835Z,13.70
2022-09-23T07:40:15.043Z,13.98
2022-09-23T07:42:42.387Z,12.80
2022-09-23T07:45:09.870Z,12.02
2022-09-23T07:47:39.315Z,12.25
2022-09-23T07:50:07.612Z,13.75
2022-09-23T07:52:38.400Z,12.85
2022-09-23T07:55:06.667Z,12.15
2022-09-23T07:57:34.501Z,12.52
2022-09-23T08:00:02.429Z,12.07
2022-09-23T08:02:29.667Z,12.48
2022-09-23T08:04:56.860Z,12.00
2022-09-23T08:07:24.063Z,11.68
2022-09-23T08:09:51.247Z,11.82
2022-09-23T08:12:18.981Z,11.20
2022-09-23T08:14:46.147Z,11.68
2022-09-23T08:17:14.143Z,12.48
2022-09-23T08:19:41.292Z,11.77
2022-09-23T08:22:08.522Z,11.60
2022-09-23T08:24:35.684Z,10.75
2022-09-23T08:27:02.870Z,12.10
2022-09-23T08:29:30.050Z,12.07
2022-09-23T08:31:57.280Z,11.30
2022-09-23T08:34:24.669Z,10.55
2022-09-23T08:36:52.520Z,11.90
2022-09-23T08:39:20.350Z,11.57
2022-09-23T08:41:59.002Z,10.77
2022-09-23T08:44:45.320Z,10.65
2022-09-23T08:47:38.963Z,11.48
2022-09-23T08:50:06.646Z,11.55
2022-09-23T08:52:36.489Z,10.75
2022-09-23T08:55:04.226Z,10.68
2022-09-23T08:58:23.477Z,10.38
2022-09-23T09:00:42.837Z,11.07
2022-09-23T09:03:20.171Z,10.85
2022-09-23T09:05:54.158Z,10.82
2022-09-23T09:08:27.156Z,12.18
2022-09-23T09:10:55.659Z,10.70
2022-09-23T09:13:31.555Z,11.40
2022-09-23T09:16:11.431Z,12.13
2022-09-23T09:18:44.125Z,10.88
2022-09-23T09:21:14.401Z,12.85
2022-09-23T09:23:46.639Z,13.23
2022-09-23T09:26:27.278Z,13.13
2022-09-23T09:29:30.849Z,12.55
2022-09-23T09:31:56.146Z,13.07
2022-09-23T09:34:26.350Z,12.02
2022-09-23T09:37:07.437Z,11.27
2022-09-23T09:39:35.362Z,12.85
2022-09-23T09:42:03.359Z,12.88
2022-09-23T09:44:37.100Z,14.27
2022-09-23T09:47:07.592Z,15.70
2022-09-23T09:49:53.660Z,21.85
2022-09-23T09:52:26.298Z,14.38
2022-09-23T09:54:56.166Z,11.07
2022-09-23T09:57:33.711Z,10.70
2022-09-23T10:00:18.917Z,10.55
2022-09-23T10:02:47.444Z,10.43
2022-09-23T10:05:26.897Z,10.15
2022-09-23T10:07:54.275Z,9.85
2022-09-23T10:10:33.146Z,10.27
2022-09-23T10:13:14.361Z,9.77
2022-09-23T10:15:45.646Z,9.93
2022-09-23T10:18:20.236Z,9.50
2022-09-23T10:20:48.705Z,10.23
2022-09-23T10:23:21.060Z,9.98
2022-09-23T10:26:18.465Z,9.02
2022-09-23T10:28:50.533Z,9.70
2022-09-23T10:31:25.330Z,8.57
2022-09-23T10:33:57.432Z,9.60
2022-09-23T10:36:24.876Z,9.48
2022-09-23T10:38:55.632Z,9.50
2022-09-23T10:42:10.567Z,9.27
2022-09-23T10:45:05.383Z,9.90
2022-09-23T10:47:44.751Z,9.50
2022-09-23T10:50:17.973Z,9.77
2022-09-23T10:52:49.812Z,9.90
2022-09-23T10:55:34.213Z,9.48
2022-09-23T10:58:20.259Z,10.27
2022-09-23T11:00:47.444Z,9.90
2022-09-23T11:03:33.652Z,9.27
2022-09-23T11:06:07.280Z,10.23
2022-09-23T11:08:40.753Z,9.93
2022-09-23T11:11:11.708Z,10.55
2022-09-23T11:13:40.227Z,9.27
2022-09-23T11:16:20.051Z,10.20
2022-09-23T11:19:00.215Z,9.55
2022-09-23T11:21:46.383Z,9.88
2022-09-23T11:24:28.798Z,9.23
2022-09-23T11:29:23.107Z,8.88
2022-09-23T11:31:59.526Z,9.70
2022-09-23T11:34:27.002Z,9.32
2022-09-23T11:36:58.554Z,9.38
2022-09-23T11:39:46.000Z,9.38
2022-09-23T11:42:24.783Z,9.75
2022-09-23T11:44:55.928Z,9.10
2022-09-23T11:47:27.016Z,9.20
2022-09-23T11:50:03.096Z,9.90
2022-09-23T11:52:33.156Z,9.55
2022-09-23T11:55:20.746Z,9.23
2022-09-23T11:57:51.968Z,10.07
2022-09-23T12:00:23.237Z,9.52
2022-09-23T12:03:05.568Z,9.68
2022-09-23T12:05:39.416Z,10.10
2022-09-23T12:08:20.875Z,10.00
2022-09-23T12:11:06.592Z,9.95
2022-09-23T12:13:53.257Z,10.30
2022-09-23T12:16:29.631Z,9.18
2022-09-23T12:19:05.930Z,9.73
2022-09-23T12:21:49.645Z,10.52
2022-09-23T12:24:27.530Z,10.32
2022-09-23T12:26:56.215Z,10.02
2022-09-23T12:29:25.129Z,9.85
2022-09-23T12:31:52.601Z,10.73
2022-09-23T12:34:22.805Z,10.68
2022-09-23T12:36:50.132Z,10.88
2022-09-23T12:39:18.441Z,8.60
2022-09-23T12:41:48.655Z,10.20
2022-09-23T12:44:29.263Z,9.02
2022-09-23T12:47:15.286Z,9.95
2022-09-23T12:49:43.784Z,8.60
2022-09-23T12:52:17.068Z,9.80
2022-09-23T12:54:45.268Z,9.48
2022-09-23T12:57:35.512Z,8.77
2022-09-23T13:00:13.402Z,8.82
2022-09-23T13:03:11.283Z,10.38
2022-09-23T13:06:16.087Z,9.57
2022-09-23T13:08:43.472Z,9.73
2022-09-23T13:11:25.813Z,8.93
2022-09-23T13:13:55.225Z,9.32
2022-09-23T13:16:31.623Z,8.95
2022-09-23T13:19:02.997Z,9.10
2022-09-23T13:22:05.550Z,8.63
2022-09-23T13:24:43.303Z,8.30
2022-09-23T13:27:22.772Z,8.48
2022-09-23T13:29:59.175Z,7.90
2022-09-23T13:32:29.592Z,7.22
2022-09-23T13:35:01.675Z,7.50
2022-09-23T13:37:48.793Z,8.02
2022-09-23T13:40:20.639Z,7.32
2022-09-23T13:43:08.125Z,6.63
2022-09-23T13:45:43.198Z,7.43
2022-09-23T13:48:13.612Z,7.60
2022-09-23T13:50:43.865Z,8.60
2022-09-23T13:53:18.799Z,8.77
2022-09-23T13:55:49.033Z,8.30
2022-09-23T13:58:20.500Z,7.93
2022-09-23T14:00:48.382Z,9.05
2022-09-23T14:03:36.275Z,8.43
2022-09-23T14:06:12.198Z,7.60
2022-09-23T14:08:40.518Z,7.45
2022-09-23T14:11:07.892Z,8.02
2022-09-23T14:13:41.130Z,7.70
2022-09-23T14:16:11.113Z,7.70
2022-09-23T14:18:40.257Z,8.43
2022-09-23T14:21:26.832Z,7.28
2022-09-23T14:23:54.123Z,7.80
2022-09-23T14:26:21.845Z,8.20
2022-09-23T14:28:49.162Z,7.43
2022-09-23T14:31:16.458Z,7.47
2022-09-23T14:33:44.003Z,7.85
2022-09-23T14:36:34.338Z,7.70
2022-09-23T14:39:11.957Z,7.70
2022-09-23T14:41:40.587Z,7.60
2022-09-23T14:44:08.600Z,8.32
2022-09-23T14:46:37.178Z,8.18
2022-09-23T14:49:05.589Z,8.10
2022-09-23T14:51:39.045Z,7.93
2022-09-23T14:54:32.367Z,8.23
2022-09-23T14:56:59.987Z,8.20
2022-09-23T14:59:29.149Z,8.23
2022-09-23T15:01:57.264Z,7.80
2022-09-23T15:04:24.425Z,8.10
2022-09-23T15:06:51.684Z,7.90
2022-09-23T15:09:30.440Z,7.53
2022-09-23T15:11:59.470Z,7.55
2022-09-23T15:14:39.749Z,7.13
2022-09-23T15:17:30.112Z,7.68
2022-09-23T15:19:59.682Z,7.10
2022-09-23T15:22:27.589Z,7.88
2022-09-23T15:24:56.380Z,7.65
2022-09-23T15:27:23.559Z,7.03
2022-09-23T15:29:51.010Z,7.65
2022-09-23T15:32:18.288Z,7.60
2022-09-23T15:34:45.559Z,8.90
2022-09-23T15:37:12.900Z,8.18
2022-09-23T15:39:40.123Z,8.23
2022-09-23T15:42:10.083Z,8.55
2022-09-23T15:44:38.053Z,7.25
2022-09-23T15:47:05.377Z,7.65
2022-09-23T15:49:36.146Z,7.32
2022-09-23T15:52:04.337Z,8.15
2022-09-23T15:54:32.452Z,8.02
2022-09-23T15:57:01.110Z,7.60
2022-09-23T15:59:30.888Z,7.85
2022-09-23T16:01:59.762Z,6.28
2022-09-23T16:04:28.304Z,6.10
2022-09-23T16:06:55.544Z,6.63
2022-09-23T16:09:22.711Z,6.75
2022-09-23T16:11:50.271Z,6.60
2022-09-23T16:14:18.276Z,6.80
2022-09-23T16:16:47.736Z,6.65
2022-09-23T16:19:16.219Z,7.30
2022-09-23T16:21:44.643Z,7.20
2022-09-23T16:24:19.119Z,7.18
2022-09-23T16:26:47.443Z,7.03
2022-09-23T16:29:14.972Z,6.30
2022-09-23T16:31:42.437Z,6.60
2022-09-23T16:34:09.735Z,6.60
2022-09-23T16:36:40.560Z,7.30
2022-09-23T16:39:10.156Z,6.68
2022-09-23T16:41:37.600Z,6.38
2022-09-23T16:44:07.389Z,7.43
2022-09-23T16:46:35.176Z,7.10
2022-09-23T16:49:02.735Z,7.20
2022-09-23T16:51:31.673Z,6.70
2022-09-23T16:54:00.007Z,6.50
2022-09-23T16:56:28.907Z,6.50
2022-09-23T16:58:56.831Z,6.78
2022-09-23T17:01:47.565Z,6.55
2022-09-23T17:04:15.714Z,6.38
2022-09-23T17:06:44.265Z,6.78
2022-09-23T17:09:11.740Z,7.18
2022-09-23T17:11:38.964Z,7.55
2022-09-23T17:14:07.524Z,6.70
2022-09-23T17:16:35.733Z,7.30
2022-09-23T17:19:07.420Z,6.90
2022-09-23T17:21:34.801Z,6.88
2022-09-23T17:24:02.089Z,7.32
2022-09-23T17:26:29.697Z,6.93
2022-09-23T17:28:58.826Z,7.10
2022-09-23T17:31:26.237Z,6.90
2022-09-23T17:33:53.861Z,6.85
2022-09-23T17:36:21.468Z,7.15
2022-09-23T17:38:49.196Z,7.07
2022-09-23T17:41:18.044Z,7.35
2022-09-23T17:43:46.744Z,7.75
2022-09-23T17:46:18.275Z,7.20
2022-09-23T17:48:47.022Z,7.40
2022-09-23T17:51:16.090Z,8.30
2022-09-23T17:53:45.501Z,8.23
2022-09-23T17:56:15.046Z,8.85
2022-09-23T17:58:42.868Z,8.10
2022-09-23T18:01:11.263Z,8.57
2022-09-23T18:03:38.808Z,8.60
2022-09-23T18:06:10.589Z,8.20
2022-09-23T18:08:38.054Z,8.98
2022-09-23T18:11:40.707Z,8.43
2022-09-23T18:14:11.509Z,8.75
2022-09-23T18:16:39.808Z,8.90
2022-09-23T18:19:08.221Z,9.15
2022-09-23T18:21:36.580Z,9.40
2022-09-23T18:24:30.719Z,10.50
2022-09-23T18:26:52.769Z,10.93
2022-09-23T18:29:20.024Z,11.30
2022-09-23T18:31:48.058Z,10.63
2022-09-23T18:34:19.022Z,10.50
2022-09-23T18:36:46.547Z,10.60
2022-09-23T18:39:13.748Z,10.18
2022-09-23T18:41:41.270Z,10.32
2022-09-23T18:44:08.756Z,10.25
2022-09-23T18:46:36.455Z,10.02
2022-09-23T18:49:22.604Z,10.13
2022-09-23T18:51:53.804Z,10.32
2022-09-23T18:54:21.504Z,10.60
2022-09-23T18:56:49.560Z,10.10
2022-09-23T18:59:19.494Z,9.70
2022-09-23T19:01:48.027Z,10.88
2022-09-23T19:04:16.699Z,9.80
2022-09-23T19:06:43.934Z,10.50
2022-09-23T19:09:12.083Z,10.65
2022-09-23T19:11:39.337Z,10.23
2022-09-23T19:14:09.862Z,11.90
2022-09-23T19:16:38.450Z,11.52
2022-09-23T19:19:06.310Z,11.90
2022-09-23T19:21:33.831Z,11.10
2022-09-23T19:24:03.379Z,11.25
2022-09-23T19:26:36.680Z,10.20
2022-09-23T19:29:04.830Z,11.27
2022-09-23T19:31:38.599Z,10.73
2022-09-23T19:34:10.049Z,10.82
2022-09-23T19:36:38.430Z,10.40
2022-09-23T19:39:06.699Z,11.15
2022-09-23T19:41:35.385Z,11.25
2022-09-23T19:44:03.420Z,11.35
2022-09-23T19:46:32.378Z,10.75
2022-09-23T19:49:00.406Z,12.50
2022-09-23T19:51:28.284Z,12.93
2022-09-23T19:53:55.600Z,12.68
2022-09-23T19:56:22.793Z,12.05
2022-09-23T19:58:52.419Z,13.18
2022-09-23T20:01:19.754Z,12.73
2022-09-23T20:03:47.664Z,13.65
2022-09-23T20:06:16.063Z,13.50
2022-09-23T20:08:43.559Z,14.43
2022-09-23T20:11:15.272Z,15.93
2022-09-23T20:13:43.984Z,17.48
2022-09-23T20:16:12.321Z,18.58
2022-09-23T20:18:39.731Z,18.40
2022-09-23T20:21:07.912Z,16.92
2022-09-23T20:23:35.404Z,16.10
2022-09-23T20:26:22.016Z,17.13
2022-09-23T20:28:49.403Z,19.33
2022-09-23T20:31:17.252Z,17.02
2022-09-23T20:33:45.979Z,20.98
2022-09-23T20:36:13.447Z,17.92
2022-09-23T20:38:40.885Z,20.73
2022-09-23T20:41:09.350Z,22.33
2022-09-23T20:43:36.730Z,22.75
2022-09-23T20:46:05.516Z,23.58
2022-09-23T20:48:33.822Z,24.23
2022-09-23T20:51:04.941Z,21.05
2022-09-23T20:53:32.641Z,22.38
2022-09-23T20:56:02.792Z,22.40
2022-09-23T20:58:30.988Z,24.90
2022-09-23T21:01:05.989Z,24.35
2022-09-23T21:03:33.989Z,23.50
2022-09-23T21:06:04.722Z,20.00
2022-09-23T21:08:33.661Z,25.55
2022-09-23T21:11:04.571Z,25.08
2022-09-23T21:13:33.533Z,24.40
2022-09-23T21:16:04.276Z,25.20
2022-09-23T21:18:31.960Z,24.75
2022-09-23T21:20:59.908Z,25.05
2022-09-23T21:23:27.244Z,24.60
2022-09-23T21:26:14.762Z,26.73
2022-09-23T21:28:43.161Z,24.95
2022-09-23T21:31:12.021Z,26.20
2022-09-23T21:33:39.324Z,25.17
2022-09-23T21:36:07.417Z,26.63
2022-09-23T21:38:35.736Z,27.42
2022-09-23T21:41:04.301Z,29.42
2022-09-23T21:43:33.651Z,29.60
2022-09-23T21:46:02.629Z,29.65
2022-09-23T21:48:32.341Z,28.13
2022-09-23T21:51:19.732Z,27.88
2022-09-23T21:53:47.054Z,28.25
2022-09-23T21:56:19.627Z,31.80
2022-09-23T21:58:48.106Z,28.75
2022-09-23T22:01:15.807Z,26.67
2022-09-23T22:03:43.912Z,32.40
2022-09-23T22:06:12.310Z,31.63
2022-09-23T22:08:40.984Z,33.88
2022-09-23T22:11:32.353Z,32.38
2022-09-23T22:14:00.514Z,32.80
2022-09-23T22:16:29.113Z,32.38
2022-09-23T22:18:57.144Z,33.50
2022-09-23T22:21:24.970Z,31.45
2022-09-23T22:23:52.709Z,29.52
2022-09-23T22:26:19.990Z,34.55
2022-09-23T22:29:05.843Z,30.65
2022-09-23T22:31:51.445Z,29.88
2022-09-23T22:34:44.952Z,36.60
2022-09-23T22:37:07.759Z,33.13
2022-09-23T22:39:34.940Z,33.38
2022-09-23T22:42:02.192Z,36.03
2022-09-23T22:44:29.438Z,37.97
2022-09-23T22:46:58.214Z,35.95
2022-09-23T22:49:25.533Z,36.85
2022-09-23T22:51:53.649Z,41.15
2022-09-23T22:54:22.175Z,37.53
2022-09-23T22:56:50.135Z,41.30
2022-09-23T22:59:17.481Z,45.05
2022-09-23T23:01:45.243Z,41.00
2022-09-23T23:04:12.914Z,44.60
2022-09-23T23:06:41.283Z,46.38
2022-09-23T23:09:09.605Z,41.10
2022-09-23T23:11:38.034Z,38.88
2022-09-23T23:14:05.225Z,39.05
2022-09-23T23:16:36.109Z,45.33
2022-09-23T23:19:06.943Z,41.17
2022-09-23T23:21:35.296Z,39.63
2022-09-23T23:24:04.475Z,44.00
2022-09-23T23:26:32.863Z,41.80
2022-09-23T23:29:01.398Z,45.65
2022-09-23T23:31:29.355Z,45.88
2022-09-23T23:33:56.571Z,40.92
2022-09-23T23:36:23.986Z,38.30
2022-09-23T23:38:51.734Z,51.13
2022-09-23T23:41:21.476Z,44.80
2022-09-23T23:43:50.004Z,53.95
2022-09-23T23:46:18.142Z,50.85
2022-09-23T23:48:48.326Z,52.55
2022-09-23T23:51:16.353Z,60.15
2022-09-23T23:53:43.850Z,55.15
2022-09-23T23:56:16.050Z,61.30
2022-09-23T23:58:43.668Z,61.58
